Talybont, United Kingdom
Current Conditions -  °F | °C
As of 3:50 PM on Friday 31 Oct 2014 (Local Time) from EGOV Reporting Station
Overcast Overcast  
Wind Chill: 61°   Ceiling: 1600
Heat Index: 61°   Visibility: 6mi
Dew Point: 57°   Wind: 24mph
Humidity: 88%   Direction: 170°S
Pressure: 29.74"   Gusts: NA
Location:  52.77°N, 4.09°W
Report Text: EGOV 311550Z 17021KT 9999 OVC016 16/14 Q1007 WHT BECMG BKN014 GRN
Loading
Personal Weather Stations






























Interactive Weather Map
Tropical Storm Tracking
New forecast layout! Learn more

10-Day Weather Forecast

Advertisements
Track Severe Weather on mobile